Ana Sayfa
METAR-TAF:

METAR-TAF

Havaalanları :

Nuuk Havalimanı

Nuuk, Grönland

Enlem: 64-10N, Boylam: 051-45W, yükseklik: 80 m

Güncel hava durumu gözlemi

Rapor saat 09:50 UTC de 27 dakika önce yapıldı.
Rüzgar doğudan 17 kt
Sıcaklık -11°C
Nem 66%
Basınç 991 hPa
Görüş mesafesi 10 km veya daha fazla
12000 ft yükseklikte az bulutlu

METAR: BGGH 170950Z 08017KT 9999 FEW120 M11/M16 Q0991

Saat: 07:17 (10:17 UTC)

Tahmin

Rapor saat 08:53 UTC de 1 saat ve 24 dakika önce yapıldı.
Ayın 17'si saat 09 UTC'den ayın 17'si saat 18 UTC'ye kadar geçerli Tahmin
Rüzgar doğudan 15 kt
Görüş mesafesi 10 km veya daha fazla
7000 ft yükseklikte az bulutlu
Geçici
ayın 17'si saat 16 UTC'den ayın 17'si saat 18 UTC'ye kadar
2500 ft yükseklikte parçalı çok bulutlu

TAF: BGGH 170853Z 1709/1718 08015KT 9999 FEW070 TEMPO 1716/1718 BKN025

4.000'den fazla havaalanı için hava durumu gözlemleri ve tahminleri (METAR ve TAF raporları).

Kullanılabilir istasyonlar harita üzerinde sarı ve kırmızı noktalarla gösterilir.

İstasyonun adını görmek için fareyi noktanın üzerinde gezdirin.

Sonrasında hava gözlem ve tahminlerini görmek için tıklayın.

Haritayı değiştirmek için: yaklaştırmak için siyah artı işaretli yeşil düğmeye ve uzaklaştırmak için de eksi işaretli düğmeye hızla tıklayın; bitişik haritalar için yeşil okları kullanın.


METAR-TAF: